METAR Data
IDs: Format: Raw Decoded Include TAF

Data at: 0928 UTC 26 Jan 2020

PTKK 260850Z 06007KT 15SM FEW014 SCT120 OVC290 28/25 A2980 RMK SLP093 8/171 T02790250 52014